Time;durP1;ratioP1;P1;durP2;ratioP2;P2;SDS_P1;SDS_P2;PMS_P1;PMS_P2;Temp;Humidity;BMP_temperature;BMP_pressure;BME280_temperature;BME280_humidity;BME280_pressure;Samples;Min_cycle;Max_cycle;Signal;HPM_P1;HPM_P2
2022/10/19 00:00:12;;;;;;;6.60;2.95;;;11.10;99.90;;;;;;5048301;28;20592;-82
2022/10/19 00:02:41;;;;;;;4.83;2.23;;;10.90;99.90;;;;;;5039160;28;20211;-81
2022/10/19 00:05:08;;;;;;;3.60;2.73;;;10.90;99.90;;;;;;5030627;28;20203;-81
2022/10/19 00:07:36;;;;;;;6.05;2.53;;;10.90;99.90;;;;;;5053677;28;20207;-81
2022/10/19 00:10:04;;;;;;;5.13;2.70;;;11.00;99.90;;;;;;5043186;28;20697;-81
2022/10/19 00:12:32;;;;;;;4.93;2.30;;;10.90;99.90;;;;;;5055391;28;20202;-81
2022/10/19 00:14:59;;;;;;;6.07;2.90;;;11.00;99.90;;;;;;5022805;28;20199;-80
2022/10/19 00:17:27;;;;;;;3.53;2.50;;;11.00;99.90;;;;;;5027158;28;20213;-81
2022/10/19 00:19:56;;;;;;;4.13;2.20;;;11.00;99.90;;;;;;5016580;28;20219;-82
2022/10/19 00:22:23;;;;;;;3.17;1.90;;;10.90;99.90;;;;;;5034957;28;20223;-81
2022/10/19 00:24:51;;;;;;;4.60;2.27;;;11.00;99.90;;;;;;5022279;28;20198;-81
2022/10/19 00:27:18;;;;;;;4.77;2.07;;;11.00;99.90;;;;;;5037477;28;20560;-82
2022/10/19 00:29:46;;;;;;;7.23;2.60;;;11.00;99.90;;;;;;5019403;28;20226;-81
2022/10/19 00:32:13;;;;;;;4.07;2.23;;;10.90;99.90;;;;;;5054259;28;20206;-83
2022/10/19 00:34:47;;;;;;;4.77;2.07;;;10.90;99.90;;;;;;5036619;28;20218;-81
2022/10/19 00:37:16;;;;;;;4.07;2.27;;;11.00;99.90;;;;;;5006199;28;20195;-81
2022/10/19 00:39:43;;;;;;;4.07;2.20;;;11.00;99.90;;;;;;5020349;28;20218;-82
2022/10/19 00:42:11;;;;;;;5.10;2.50;;;11.00;99.90;;;;;;5023064;28;20677;-81
2022/10/19 00:45:01;;;;;;;2.75;2.20;;;10.90;99.90;;;;;;5008448;28;20210;-81
2022/10/19 00:47:29;;;;;;;8.33;2.83;;;10.70;99.90;;;;;;5025718;28;20209;-81
2022/10/19 00:49:58;;;;;;;6.87;2.60;;;10.70;99.90;;;;;;5032504;28;20226;-82
2022/10/19 00:52:28;;;;;;;4.33;3.13;;;10.80;99.90;;;;;;5025095;28;20198;-81
2022/10/19 00:54:57;;;;;;;4.63;2.60;;;10.80;99.90;;;;;;4999954;28;20211;-81
2022/10/19 00:57:29;;;;;;;5.73;2.50;;;10.80;99.90;;;;;;5026113;28;20206;-81
2022/10/19 00:59:58;;;;;;;3.73;2.47;;;10.40;99.90;;;;;;5021756;28;20241;-81
2022/10/19 01:02:26;;;;;;;6.07;2.63;;;10.50;99.90;;;;;;5022774;28;20216;-81
2022/10/19 01:04:54;;;;;;;3.67;2.77;;;10.60;99.90;;;;;;5020158;28;20270;-81
2022/10/19 01:07:21;;;;;;;7.53;3.17;;;10.60;99.90;;;;;;5027337;28;20203;-81
2022/10/19 01:09:50;;;;;;;5.80;2.63;;;10.40;99.90;;;;;;5028409;28;20211;-81
2022/10/19 01:12:51;;;;;;;5.63;2.57;;;10.40;99.90;;;;;;5010263;28;20217;-81
2022/10/19 01:15:28;;;;;;;5.63;2.60;;;10.40;99.90;;;;;;4971618;28;20219;-80
2022/10/19 01:18:04;;;;;;;5.17;2.83;;;10.40;99.90;;;;;;5002806;28;20203;-82
2022/10/19 01:21:04;;;;;;;3.20;2.43;;;10.40;99.90;;;;;;5035247;28;20634;-81
2022/10/19 01:24:24;;;;;;;4.30;2.37;;;10.40;99.90;;;;;;5014722;28;20222;-81
2022/10/19 01:27:34;;;;;;;10.00;2.80;;;10.50;99.90;;;;;;5031357;28;20207;-82
2022/10/19 01:30:32;;;;;;;6.53;3.00;;;10.40;99.90;;;;;;5016102;28;20230;-83
2022/10/19 01:33:12;;;;;;;5.43;2.73;;;10.30;99.90;;;;;;5021568;28;20203;-81
2022/10/19 01:35:46;;;;;;;4.53;2.50;;;10.30;99.90;;;;;;5011071;28;20198;-83
2022/10/19 01:38:26;;;;;;;6.47;3.00;;;10.30;99.90;;;;;;5013337;28;20202;-81
2022/10/19 01:40:57;;;;;;;3.90;2.63;;;10.20;99.90;;;;;;5015513;28;20261;-81
2022/10/19 01:43:37;;;;;;;7.27;3.83;;;10.20;99.90;;;;;;5017281;28;20214;-81
2022/10/19 01:46:11;;;;;;;4.30;2.77;;;10.20;99.90;;;;;;5040717;28;20206;-81
2022/10/19 01:48:44;;;;;;;3.70;2.80;;;10.10;99.90;;;;;;5015479;28;20203;-80
2022/10/19 01:51:19;;;;;;;4.07;3.07;;;10.00;99.90;;;;;;5011840;28;20242;-81
2022/10/19 01:53:51;;;;;;;5.87;3.10;;;10.10;99.90;;;;;;5025493;28;20205;-81
2022/10/19 01:56:23;;;;;;;5.03;3.40;;;10.20;99.90;;;;;;5006994;28;20198;-81
2022/10/19 01:58:53;;;;;;;5.97;2.97;;;10.30;99.90;;;;;;5031016;28;20211;-83
2022/10/19 02:01:24;;;;;;;6.73;3.00;;;10.10;99.90;;;;;;5011387;28;20219;-82
2022/10/19 02:03:53;;;;;;;5.60;3.20;;;9.80;99.90;;;;;;5010525;28;20214;-80
2022/10/19 02:06:21;;;;;;;6.60;3.27;;;9.90;99.90;;;;;;5001330;28;20214;-81
2022/10/19 02:08:52;;;;;;;4.77;3.07;;;9.90;99.90;;;;;;5017471;28;20226;-82
2022/10/19 02:11:21;;;;;;;7.70;3.33;;;9.70;99.90;;;;;;5019327;28;20228;-81
2022/10/19 02:13:54;;;;;;;5.60;3.80;;;10.00;99.90;;;;;;5021792;28;20195;-82
2022/10/19 02:16:29;;;;;;;3.90;3.00;;;9.90;99.90;;;;;;5011956;28;20200;-82
2022/10/19 02:19:01;;;;;;;5.50;3.03;;;9.90;99.90;;;;;;5014898;28;20191;-81
2022/10/19 02:21:29;;;;;;;7.23;3.40;;;9.80;99.90;;;;;;5014821;28;20234;-81
2022/10/19 02:23:56;;;;;;;6.83;3.50;;;9.90;99.90;;;;;;5027421;28;20219;-82
2022/10/19 02:26:24;;;;;;;6.90;3.17;;;9.90;99.90;;;;;;5011986;28;20572;-83
2022/10/19 02:28:53;;;;;;;7.77;3.77;;;9.90;99.90;;;;;;5013043;28;20207;-82
2022/10/19 02:31:22;;;;;;;6.00;3.80;;;10.10;99.90;;;;;;5013347;28;20669;-81
2022/10/19 02:33:49;;;;;;;5.17;3.40;;;10.10;99.90;;;;;;5015630;28;20203;-81
2022/10/19 02:36:17;;;;;;;6.80;3.73;;;10.10;99.90;;;;;;5020645;28;20208;-81
2022/10/19 02:38:45;;;;;;;8.60;3.43;;;10.00;99.90;;;;;;5030653;28;20218;-81
2022/10/19 02:41:17;;;;;;;5.93;3.17;;;9.90;99.90;;;;;;5014199;28;20235;-81
2022/10/19 02:43:49;;;;;;;4.27;3.13;;;9.80;99.90;;;;;;5016933;28;20211;-81
2022/10/19 02:46:25;;;;;;;5.73;3.30;;;9.80;99.90;;;;;;5026150;28;20203;-82
2022/10/19 02:48:55;;;;;;;8.37;3.47;;;9.80;99.90;;;;;;5020364;28;20217;-82
2022/10/19 02:51:33;;;;;;;5.03;3.03;;;9.70;99.90;;;;;;5005230;28;20829;-82
2022/10/19 02:54:01;;;;;;;5.50;3.80;;;9.80;99.90;;;;;;5016359;28;20191;-82
2022/10/19 02:56:28;;;;;;;6.13;3.70;;;9.90;99.90;;;;;;5017853;28;20214;-82
2022/10/19 02:58:56;;;;;;;5.17;3.73;;;10.00;99.90;;;;;;5036291;28;20202;-81
2022/10/19 03:01:25;;;;;;;8.40;3.90;;;9.90;99.90;;;;;;5002215;28;20218;-79
2022/10/19 03:03:53;;;;;;;8.07;3.43;;;9.80;99.90;;;;;;5018893;28;20240;-80
2022/10/19 03:06:20;;;;;;;6.03;2.93;;;9.70;99.90;;;;;;5023664;28;20214;-79
2022/10/19 03:08:48;;;;;;;3.70;3.30;;;9.80;99.90;;;;;;5011329;28;20206;-81
2022/10/19 03:11:15;;;;;;;6.93;3.67;;;9.90;99.90;;;;;;5042695;28;20222;-82
2022/10/19 03:13:43;;;;;;;5.50;3.40;;;9.80;99.90;;;;;;5024462;28;20215;-80
2022/10/19 03:16:12;;;;;;;5.60;3.93;;;9.80;99.90;;;;;;5029872;28;20210;-81
2022/10/19 03:18:41;;;;;;;5.57;3.63;;;9.80;99.90;;;;;;5007538;28;20206;-79
2022/10/19 03:21:11;;;;;;;7.73;4.43;;;9.80;99.90;;;;;;5028530;28;20233;-82
2022/10/19 03:23:39;;;;;;;11.43;4.40;;;9.90;99.90;;;;;;5028459;28;20229;-81
2022/10/19 03:26:08;;;;;;;5.50;3.80;;;10.00;99.90;;;;;;5024858;28;20657;-81
2022/10/19 03:28:35;;;;;;;8.00;4.40;;;10.00;99.90;;;;;;5023225;28;20210;-79
2022/10/19 03:31:03;;;;;;;5.53;4.20;;;10.00;99.90;;;;;;5022945;28;20223;-80
2022/10/19 03:33:30;;;;;;;9.43;4.43;;;10.00;99.90;;;;;;5024743;28;20198;-82
2022/10/19 03:36:17;;;;;;;5.03;4.30;;;10.00;99.90;;;;;;5014517;28;20683;-79
2022/10/19 03:38:44;;;;;;;9.57;5.33;;;10.20;99.90;;;;;;5011337;28;20202;-79
2022/10/19 03:41:12;;;;;;;7.57;5.27;;;10.30;99.90;;;;;;5042937;28;20235;-81
2022/10/19 03:43:41;;;;;;;8.97;6.27;;;10.40;99.90;;;;;;5034593;28;20665;-82
2022/10/19 03:46:08;;;;;;;8.33;5.40;;;10.40;99.90;;;;;;5064176;28;20198;-82
2022/10/19 03:48:36;;;;;;;7.37;5.30;;;10.40;99.90;;;;;;5024872;28;20214;-80
2022/10/19 03:51:05;;;;;;;5.93;5.30;;;10.30;99.90;;;;;;5009179;28;20226;-80
2022/10/19 03:53:35;;;;;;;7.03;5.50;;;10.10;99.90;;;;;;5014214;28;20202;-82
2022/10/19 03:56:04;;;;;;;10.80;5.77;;;10.20;99.90;;;;;;5004491;28;20203;-82
2022/10/19 03:58:34;;;;;;;8.73;5.93;;;10.20;99.90;;;;;;5008877;28;20549;-81
2022/10/19 04:01:06;;;;;;;10.20;5.83;;;10.20;99.90;;;;;;5021205;28;20234;-81
2022/10/19 04:03:33;;;;;;;9.83;5.90;;;10.20;99.90;;;;;;5019533;28;20210;-79
2022/10/19 04:06:06;;;;;;;11.63;6.70;;;10.10;99.90;;;;;;5026553;28;20198;-82
2022/10/19 04:08:35;;;;;;;8.47;6.27;;;10.10;99.90;;;;;;5021419;28;20210;-82
2022/10/19 04:11:05;;;;;;;9.80;6.07;;;10.20;99.90;;;;;;5029250;28;20222;-82
2022/10/19 04:13:34;;;;;;;11.60;6.90;;;10.30;99.90;;;;;;5021212;28;20206;-82
2022/10/19 04:16:01;;;;;;;8.80;6.57;;;10.20;99.90;;;;;;5042204;28;20207;-79
2022/10/19 04:18:29;;;;;;;10.63;7.00;;;10.20;99.90;;;;;;5035003;28;20218;-81
2022/10/19 04:20:58;;;;;;;10.93;7.20;;;10.10;99.90;;;;;;5035955;28;20237;-80
2022/10/19 04:23:27;;;;;;;9.97;7.30;;;10.10;99.90;;;;;;5038232;28;20203;-81
2022/10/19 04:26:01;;;;;;;7.73;6.43;;;9.90;99.90;;;;;;5025882;28;20219;-79
2022/10/19 04:28:29;;;;;;;9.07;6.60;;;9.80;99.90;;;;;;5033797;28;20205;-82
2022/10/19 04:30:56;;;;;;;9.53;6.27;;;9.70;99.90;;;;;;5019194;28;20223;-82
2022/10/19 04:33:24;;;;;;;7.87;6.33;;;9.70;99.90;;;;;;5042573;28;20209;-82
2022/10/19 04:35:57;;;;;;;9.53;5.90;;;9.80;99.90;;;;;;5035327;28;20194;-81
2022/10/19 04:38:24;;;;;;;10.93;6.50;;;9.80;99.90;;;;;;5017588;28;20207;-81
2022/10/19 04:40:52;;;;;;;8.90;6.30;;;9.80;99.90;;;;;;5008450;28;20695;-81
2022/10/19 04:43:21;;;;;;;6.93;6.23;;;9.70;99.90;;;;;;5018426;28;20217;-81
2022/10/19 04:45:48;;;;;;;8.87;7.27;;;9.60;99.90;;;;;;5043003;28;20214;-81
2022/10/19 04:48:16;;;;;;;12.13;8.47;;;9.60;99.90;;;;;;5048745;28;20206;-80
2022/10/19 04:50:43;;;;;;;17.80;10.27;;;9.60;99.90;;;;;;5008838;28;20302;-81
2022/10/19 04:53:20;;;;;;;15.67;10.00;;;9.70;99.90;;;;;;5018947;28;20218;-78
2022/10/19 04:55:47;;;;;;;15.50;10.97;;;9.50;99.90;;;;;;5037967;28;20195;-79
2022/10/19 04:58:15;;;;;;;15.83;11.53;;;9.30;99.90;;;;;;5023261;28;20206;-81
2022/10/19 05:00:44;;;;;;;20.47;11.23;;;9.40;99.90;;;;;;5031126;28;20222;-80
2022/10/19 05:03:12;;;;;;;15.10;11.00;;;9.70;99.90;;;;;;5031767;28;20211;-81
2022/10/19 05:05:39;;;;;;;16.97;10.63;;;9.90;99.90;;;;;;5017580;28;20215;-82
2022/10/19 05:08:07;;;;;;;16.77;10.60;;;10.00;99.90;;;;;;5025350;28;20195;-81
2022/10/19 05:10:34;;;;;;;16.83;10.50;;;10.10;99.90;;;;;;5003227;28;20230;-79
2022/10/19 05:13:02;;;;;;;16.37;10.67;;;10.20;99.90;;;;;;5042209;28;20198;-81
2022/10/19 05:15:30;;;;;;;17.93;10.50;;;10.30;99.90;;;;;;5034118;28;20191;-80
2022/10/19 05:17:58;;;;;;;18.43;11.33;;;10.20;99.90;;;;;;5003184;28;20199;-81
2022/10/19 05:20:26;;;;;;;16.50;10.57;;;10.10;99.90;;;;;;5037972;28;20229;-82
2022/10/19 05:22:54;;;;;;;14.63;9.77;;;10.10;99.90;;;;;;5045415;28;20199;-82
2022/10/19 05:25:21;;;;;;;15.40;12.03;;;10.10;99.90;;;;;;5025360;28;20231;-81
2022/10/19 05:27:52;;;;;;;15.27;10.63;;;10.10;99.90;;;;;;5046490;28;20199;-82
2022/10/19 05:30:21;;;;;;;13.13;9.67;;;10.10;99.90;;;;;;5038059;28;20223;-80
2022/10/19 05:32:48;;;;;;;12.40;9.40;;;10.30;99.90;;;;;;5038628;28;20714;-80
2022/10/19 05:35:42;;;;;;;12.53;9.77;;;10.10;99.90;;;;;;5028321;28;20194;-80
2022/10/19 05:39:23;;;;;;;13.93;9.37;;;10.10;99.90;;;;;;5029832;28;20197;-79
2022/10/19 05:41:56;;;;;;;15.33;9.43;;;10.10;99.90;;;;;;5014184;28;20195;-78
2022/10/19 05:44:29;;;;;;;14.87;9.67;;;10.10;99.90;;;;;;5027460;28;20723;-81
2022/10/19 05:47:37;;;;;;;12.60;9.40;;;10.10;99.90;;;;;;5048504;28;20203;-79
2022/10/19 05:50:05;;;;;;;13.77;9.60;;;10.10;99.90;;;;;;5018809;28;20223;-78
2022/10/19 05:52:36;;;;;;;17.07;9.70;;;10.10;99.90;;;;;;5014351;28;20198;-79
2022/10/19 05:55:04;;;;;;;11.93;8.83;;;10.00;99.90;;;;;;5028415;28;20187;-78
2022/10/19 05:57:32;;;;;;;15.30;9.30;;;10.10;99.90;;;;;;5015835;28;20204;-79
2022/10/19 06:00:02;;;;;;;12.67;9.47;;;10.10;99.90;;;;;;5024780;28;20225;-78
2022/10/19 06:02:43;;;;;;;11.30;8.63;;;10.30;99.90;;;;;;5032873;28;20202;-78
2022/10/19 06:05:24;;;;;;;14.70;9.27;;;10.60;99.90;;;;;;5021543;28;20755;-78
2022/10/19 06:07:56;;;;;;;19.20;9.13;;;10.70;99.90;;;;;;5025938;28;20207;-78
2022/10/19 06:10:24;;;;;;;14.30;10.50;;;10.70;99.90;;;;;;5017872;28;20587;-78
2022/10/19 06:12:58;;;;;;;14.13;9.33;;;10.70;99.90;;;;;;5028826;28;20195;-78
2022/10/19 06:15:31;;;;;;;11.53;8.97;;;10.40;99.90;;;;;;5013762;28;20195;-78
2022/10/19 06:17:58;;;;;;;14.47;9.70;;;10.20;99.90;;;;;;5020528;28;20206;-78
2022/10/19 06:20:29;;;;;;;13.43;8.80;;;10.20;99.90;;;;;;5031284;28;20237;-78
2022/10/19 06:22:57;;;;;;;11.73;8.30;;;10.40;99.90;;;;;;5047662;28;20207;-78
2022/10/19 06:25:32;;;;;;;9.87;8.87;;;10.50;99.90;;;;;;5029322;28;20226;-78
2022/10/19 06:28:00;;;;;;;10.63;8.20;;;10.40;99.90;;;;;;5046523;28;20195;-78
2022/10/19 06:30:29;;;;;;;12.03;8.67;;;10.30;99.90;;;;;;5020408;28;20215;-78
2022/10/19 06:32:58;;;;;;;10.40;8.60;;;10.20;99.90;;;;;;5015119;28;20202;-76
2022/10/19 06:35:26;;;;;;;13.60;8.90;;;10.10;99.90;;;;;;5016751;28;20206;-77
2022/10/19 06:37:57;;;;;;;13.40;8.23;;;10.10;99.90;;;;;;5009438;28;20217;-77
2022/10/19 06:40:25;;;;;;;10.93;8.93;;;10.00;99.90;;;;;;5027206;28;20601;-77
2022/10/19 06:42:55;;;;;;;9.73;7.67;;;9.90;99.90;;;;;;5028968;28;20210;-77
2022/10/19 06:45:22;;;;;;;9.93;8.67;;;9.90;99.90;;;;;;5031504;28;20222;-77
2022/10/19 06:47:50;;;;;;;12.00;9.23;;;9.90;99.90;;;;;;5054420;28;20209;-78
2022/10/19 06:50:19;;;;;;;9.47;8.40;;;10.00;99.90;;;;;;5037757;28;20226;-77
2022/10/19 06:52:47;;;;;;;10.57;9.47;;;9.90;99.90;;;;;;5036204;28;20195;-77
2022/10/19 06:55:16;;;;;;;12.33;9.23;;;9.90;99.90;;;;;;5019504;28;20198;-77
2022/10/19 06:57:47;;;;;;;12.03;9.53;;;9.90;99.90;;;;;;5028224;28;20202;-77
2022/10/19 07:00:15;;;;;;;11.57;9.73;;;9.80;99.90;;;;;;5045524;28;20222;-77
2022/10/19 07:02:43;;;;;;;10.40;9.27;;;9.80;99.90;;;;;;5033184;28;20221;-77
2022/10/19 07:05:10;;;;;;;9.73;8.73;;;10.00;99.90;;;;;;5052201;28;20195;-77
2022/10/19 07:07:38;;;;;;;10.07;8.30;;;9.80;99.90;;;;;;5025609;28;20202;-77
2022/10/19 07:10:06;;;;;;;12.53;9.13;;;9.90;99.90;;;;;;5049788;28;20225;-78
2022/10/19 07:12:35;;;;;;;10.77;8.67;;;9.90;99.90;;;;;;5033021;28;20207;-77
2022/10/19 07:15:03;;;;;;;8.97;7.73;;;9.90;99.90;;;;;;5032332;28;20207;-77
2022/10/19 07:17:30;;;;;;;11.07;8.53;;;10.00;99.90;;;;;;5019516;28;20194;-77
2022/10/19 07:19:58;;;;;;;11.30;8.43;;;10.10;99.90;;;;;;5017725;28;20225;-77
2022/10/19 07:22:25;;;;;;;8.43;7.40;;;10.20;99.90;;;;;;5040739;28;20203;-77
2022/10/19 07:24:57;;;;;;;11.40;8.70;;;10.30;99.90;;;;;;5039447;28;20203;-77
2022/10/19 07:27:24;;;;;;;9.73;8.30;;;10.30;99.90;;;;;;5034117;28;20572;-77
2022/10/19 07:29:53;;;;;;;11.37;8.43;;;10.40;99.90;;;;;;5026494;28;20669;-78
2022/10/19 07:32:21;;;;;;;10.23;8.43;;;10.40;99.90;;;;;;5049092;28;20207;-77
2022/10/19 07:34:48;;;;;;;14.80;9.30;;;10.50;99.90;;;;;;5033640;28;20194;-77
2022/10/19 07:37:19;;;;;;;11.97;9.57;;;10.60;99.90;;;;;;5028699;28;20213;-78
2022/10/19 07:39:46;;;;;;;12.67;8.77;;;10.70;99.90;;;;;;5026395;28;20277;-78
2022/10/19 07:42:14;;;;;;;10.27;8.53;;;10.70;99.90;;;;;;5029454;28;20689;-77
2022/10/19 07:44:41;;;;;;;12.40;9.50;;;10.80;99.90;;;;;;5030575;28;20207;-77
2022/10/19 07:47:10;;;;;;;12.07;9.63;;;10.70;99.90;;;;;;5012385;28;20217;-77
2022/10/19 07:49:38;;;;;;;13.40;10.43;;;10.70;99.90;;;;;;5025522;28;20207;-77
2022/10/19 07:52:06;;;;;;;12.63;10.57;;;10.70;99.90;;;;;;5045002;28;20195;-78
2022/10/19 07:54:33;;;;;;;16.03;10.93;;;10.60;99.90;;;;;;5021823;28;20202;-77
2022/10/19 07:57:01;;;;;;;12.50;10.47;;;10.60;99.90;;;;;;5023278;28;20196;-78
2022/10/19 07:59:28;;;;;;;13.90;11.37;;;10.80;99.90;;;;;;5022390;28;20277;-78
2022/10/19 08:01:57;;;;;;;13.10;11.23;;;10.90;99.90;;;;;;5012993;28;20201;-78
2022/10/19 08:04:26;;;;;;;15.10;12.60;;;11.00;99.90;;;;;;5015643;28;20195;-77
2022/10/19 08:06:54;;;;;;;13.30;11.93;;;11.10;99.90;;;;;;5015640;28;20576;-77
2022/10/19 08:09:23;;;;;;;11.77;10.37;;;11.10;99.90;;;;;;5029449;28;20208;-78
2022/10/19 08:11:50;;;;;;;13.67;10.30;;;11.20;99.90;;;;;;5021653;28;20222;-78
2022/10/19 08:14:18;;;;;;;12.63;10.37;;;11.10;99.90;;;;;;5046489;28;20203;-76
2022/10/19 08:16:50;;;;;;;11.37;9.47;;;11.10;99.90;;;;;;5025585;28;20183;-77
2022/10/19 08:19:18;;;;;;;10.90;9.80;;;11.30;99.90;;;;;;5051895;28;20656;-79
2022/10/19 08:21:47;;;;;;;11.30;10.13;;;11.50;99.90;;;;;;5005348;28;20203;-78
2022/10/19 08:24:17;;;;;;;13.27;11.70;;;11.60;99.90;;;;;;5028954;28;20207;-78
2022/10/19 08:26:44;;;;;;;13.90;12.07;;;11.60;99.90;;;;;;5041030;28;20222;-77
2022/10/19 08:29:14;;;;;;;13.43;9.70;;;11.70;99.90;;;;;;5045951;28;20214;-78
2022/10/19 08:31:43;;;;;;;12.65;9.63;;;11.70;99.90;;;;;;5017364;28;20559;-77
2022/10/19 08:34:12;;;;;;;14.20;9.95;;;11.70;99.90;;;;;;5018487;28;20204;-78
2022/10/19 08:36:40;;;;;;;11.48;8.98;;;11.80;99.90;;;;;;5037566;28;20186;-78
2022/10/19 08:39:11;;;;;;;9.77;8.77;;;11.80;99.90;;;;;;5029253;28;20206;-78
2022/10/19 08:41:53;;;;;;;12.18;8.95;;;11.80;99.90;;;;;;5050664;28;20207;-78
2022/10/19 08:45:01;;;;;;;12.97;8.77;;;11.90;99.90;;;;;;5032059;28;20198;-78
2022/10/19 08:47:42;;;;;;;9.98;7.90;;;12.00;99.90;;;;;;4999366;28;20220;-78
2022/10/19 08:50:17;;;;;;;11.90;8.57;;;12.00;99.90;;;;;;5000921;28;20230;-78
2022/10/19 08:52:51;;;;;;;11.85;8.20;;;12.20;99.90;;;;;;5008864;28;20207;-78
2022/10/19 08:55:48;;;;;;;12.95;8.60;;;12.30;99.90;;;;;;5041156;28;20202;-78
2022/10/19 08:58:32;;;;;;;11.15;8.32;;;12.40;99.90;;;;;;5040704;28;20209;-78
2022/10/19 09:01:06;;;;;;;10.25;7.38;;;12.30;99.90;;;;;;5039534;28;20227;-78
2022/10/19 09:03:41;;;;;;;10.88;6.82;;;12.40;99.90;;;;;;5021176;28;20194;-78
2022/10/19 09:06:23;;;;;;;16.75;7.30;;;12.50;99.90;;;;;;5052046;28;20288;-78
2022/10/19 09:08:53;;;;;;;10.52;7.15;;;12.60;99.90;;;;;;5012794;28;20207;-78
2022/10/19 09:11:25;;;;;;;9.02;6.53;;;12.70;99.90;;;;;;5014568;28;20219;-79
2022/10/19 09:14:02;;;;;;;10.18;6.95;;;12.80;99.90;;;;;;5002184;28;20203;-78
2022/10/19 09:16:37;;;;;;;10.00;5.80;;;12.80;99.90;;;;;;5026807;28;20206;-78
2022/10/19 09:19:15;;;;;;;10.30;5.55;;;12.90;99.90;;;;;;5028522;28;20200;-78
2022/10/19 09:21:49;;;;;;;8.57;5.72;;;12.90;99.90;;;;;;5028856;28;20248;-78
2022/10/19 09:24:27;;;;;;;7.60;5.07;;;12.90;99.90;;;;;;5012897;28;20210;-78
2022/10/19 09:26:59;;;;;;;11.30;5.57;;;13.00;99.90;;;;;;5020707;28;20214;-78
2022/10/19 09:29:35;;;;;;;9.90;5.47;;;13.10;99.90;;;;;;5023747;28;20195;-77
2022/10/19 09:32:10;;;;;;;8.80;4.80;;;13.10;99.90;;;;;;5006690;28;20199;-77
2022/10/19 09:34:42;;;;;;;10.30;5.32;;;13.20;99.90;;;;;;5047032;28;20211;-78
2022/10/19 09:37:12;;;;;;;6.55;3.50;;;13.30;99.90;;;;;;5013389;28;20195;-78
2022/10/19 09:39:39;;;;;;;5.43;3.65;;;13.30;99.90;;;;;;5020815;28;20222;-80
2022/10/19 09:42:22;;;;;;;8.00;3.95;;;13.30;99.90;;;;;;5008582;28;20206;-78
2022/10/19 09:44:51;;;;;;;9.23;4.45;;;13.50;99.90;;;;;;5013413;28;20203;-77
2022/10/19 09:47:32;;;;;;;9.80;4.18;;;13.40;99.90;;;;;;5008840;28;20572;-77
2022/10/19 09:50:18;;;;;;;7.07;3.85;;;13.50;99.90;;;;;;5023945;28;20226;-78
2022/10/19 09:52:46;;;;;;;10.88;5.20;;;13.50;99.90;;;;;;5015605;28;20202;-81
2022/10/19 09:55:33;;;;;;;7.95;4.43;;;13.90;99.90;;;;;;5014042;28;20211;-81
2022/10/19 09:58:16;;;;;;;5.82;3.00;;;14.50;99.90;;;;;;5026458;28;20202;-80
2022/10/19 10:00:49;;;;;;;6.53;3.15;;;14.50;99.90;;;;;;5028891;28;20227;-79
2022/10/19 10:03:26;;;;;;;8.07;3.38;;;14.20;99.90;;;;;;5021766;28;21021;-79
2022/10/19 10:05:58;;;;;;;3.88;2.78;;;14.30;99.90;;;;;;5009808;28;20209;-79
2022/10/19 10:08:29;;;;;;;8.73;3.00;;;14.40;99.90;;;;;;5032066;28;20889;-79
2022/10/19 10:11:23;;;;;;;4.22;2.55;;;14.30;99.90;;;;;;5030064;28;20238;-78
2022/10/19 10:13:55;;;;;;;5.18;2.50;;;14.30;99.90;;;;;;5009947;28;20564;-79
2022/10/19 10:26:47;;;;;;;4.85;1.65;;;14.40;99.90;;;;;;5029569;28;20201;-78
2022/10/19 10:29:24;;;;;;;3.88;2.08;;;14.60;99.90;;;;;;5038182;28;20203;-78
2022/10/19 10:31:54;;;;;;;6.53;2.67;;;14.70;99.90;;;;;;5023478;28;20209;-78
2022/10/19 10:34:41;;;;;;;3.40;1.80;;;14.80;99.90;;;;;;5027439;28;20199;-78
2022/10/19 10:37:19;;;;;;;4.07;1.75;;;15.00;99.90;;;;;;5030372;28;20188;-78
2022/10/19 10:39:52;;;;;;;3.75;1.42;;;15.30;99.90;;;;;;5015741;28;20214;-78
2022/10/19 10:42:30;;;;;;;2.33;1.60;;;15.40;99.90;;;;;;5014801;28;20207;-78
2022/10/19 10:45:01;;;;;;;6.53;1.40;;;15.30;99.90;;;;;;5018599;28;20198;-78
2022/10/19 10:47:30;;;;;;;5.82;2.20;;;15.40;99.90;;;;;;5032185;28;20218;-78
2022/10/19 10:50:01;;;;;;;4.60;1.77;;;15.80;99.90;;;;;;5032124;28;20226;-78
2022/10/19 10:52:30;;;;;;;4.45;1.70;;;16.00;99.90;;;;;;5045759;28;20211;-78
2022/10/19 10:55:00;;;;;;;3.17;1.52;;;15.30;99.90;;;;;;5041139;28;20199;-78
2022/10/19 11:00:29;;;;;;;2.05;1.50;;;15.80;99.90;;;;;;5021391;28;20202;-76
2022/10/19 11:03:02;;;;;;;3.17;1.75;;;16.50;99.90;;;;;;5014330;28;20206;-76
2022/10/19 11:05:40;;;;;;;7.45;1.77;;;15.90;99.90;;;;;;5032467;28;20584;-76
2022/10/19 11:08:25;;;;;;;4.88;1.88;;;16.30;99.90;;;;;;5027029;28;20218;-76
2022/10/19 11:11:00;;;;;;;3.60;2.05;;;17.50;98.60;;;;;;5023485;28;20199;-76
2022/10/19 11:13:31;;;;;;;5.93;2.15;;;17.60;96.20;;;;;;5014072;28;20206;-76
2022/10/19 11:16:04;;;;;;;4.45;2.40;;;17.00;97.60;;;;;;5025672;28;20218;-76
2022/10/19 11:18:36;;;;;;;3.28;2.08;;;17.20;97.50;;;;;;5033088;28;20591;-76
2022/10/19 11:21:09;;;;;;;5.47;2.25;;;16.60;97.90;;;;;;5017774;28;20195;-76
2022/10/19 11:23:48;;;;;;;4.20;2.00;;;16.50;98.80;;;;;;5032339;28;20206;-76
2022/10/19 11:26:40;;;;;;;2.58;1.90;;;17.40;97.50;;;;;;5012922;28;20586;-76
2022/10/19 11:29:25;;;;;;;4.88;2.10;;;18.30;96.20;;;;;;5026707;28;20231;-77
2022/10/19 11:31:55;;;;;;;8.55;2.47;;;17.90;95.60;;;;;;5016072;28;20579;-77
2022/10/19 11:34:52;;;;;;;3.60;1.88;;;18.20;95.50;;;;;;5026853;28;20210;-76
2022/10/19 11:37:27;;;;;;;2.53;1.95;;;18.40;94.40;;;;;;5007575;28;20207;-76
2022/10/19 11:40:05;;;;;;;3.33;2.30;;;18.50;94.80;;;;;;5031994;28;20214;-77
2022/10/19 11:42:46;;;;;;;4.68;2.28;;;18.80;93.90;;;;;;5032271;28;20199;-75
2022/10/19 11:45:21;;;;;;;7.78;2.75;;;19.10;93.60;;;;;;5031539;28;20202;-76
2022/10/19 11:48:17;;;;;;;5.13;1.88;;;19.50;93.50;;;;;;5032509;28;20206;-76
2022/10/19 11:50:52;;;;;;;4.68;1.88;;;19.50;92.20;;;;;;5015239;28;20198;-76
2022/10/19 11:53:29;;;;;;;3.45;1.90;;;19.20;91.80;;;;;;5012774;28;20209;-76
2022/10/19 11:56:04;;;;;;;5.90;2.40;;;19.50;91.90;;;;;;5009499;28;20201;-76
2022/10/19 11:58:44;;;;;;;2.80;1.60;;;18.90;91.60;;;;;;5004873;28;20229;-75
2022/10/19 12:01:28;;;;;;;2.78;1.38;;;18.80;92.40;;;;;;5010704;28;20203;-77
2022/10/19 12:04:16;;;;;;;3.20;1.50;;;19.60;92.00;;;;;;5023320;28;20195;-77
2022/10/19 12:06:52;;;;;;;3.20;1.50;;;19.70;91.40;;;;;;5032387;28;20207;-77
2022/10/19 12:09:30;;;;;;;2.80;1.52;;;19.60;90.50;;;;;;5007503;28;20231;-77
2022/10/19 12:12:29;;;;;;;2.92;1.50;;;19.40;90.90;;;;;;5016227;28;20205;-77
2022/10/19 12:15:05;;;;;;;3.58;1.30;;;19.80;89.80;;;;;;5032026;28;20609;-77
2022/10/19 12:17:37;;;;;;;2.55;1.33;;;19.40;87.60;;;;;;5029799;28;20221;-76
2022/10/19 12:20:14;;;;;;;3.42;1.40;;;18.50;91.60;;;;;;5012204;28;20199;-77
2022/10/19 12:22:43;;;;;;;4.90;1.98;;;18.10;91.10;;;;;;5028160;28;20274;-77
2022/10/19 12:25:14;;;;;;;3.80;1.83;;;18.20;91.50;;;;;;5038538;28;20187;-77
2022/10/19 12:27:44;;;;;;;4.53;1.60;;;18.30;91.50;;;;;;5040067;28;20718;-77
2022/10/19 12:30:15;;;;;;;1.75;1.42;;;18.70;92.00;;;;;;5018020;28;20194;-77
2022/10/19 12:32:51;;;;;;;3.53;1.20;;;19.40;90.40;;;;;;5033310;28;20202;-77
2022/10/19 12:35:35;;;;;;;4.15;1.60;;;20.30;90.00;;;;;;5038939;28;20659;-77
2022/10/19 12:38:10;;;;;;;3.83;1.40;;;20.30;87.30;;;;;;5042104;28;20225;-77
2022/10/19 12:40:43;;;;;;;3.17;1.83;;;20.80;86.30;;;;;;5035011;28;20194;-77
2022/10/19 12:43:16;;;;;;;2.70;1.50;;;20.60;85.30;;;;;;5035286;28;20203;-77
2022/10/19 12:45:49;;;;;;;3.20;1.60;;;21.10;85.40;;;;;;5014745;28;20210;-77
2022/10/19 12:48:24;;;;;;;4.60;1.92;;;20.70;84.70;;;;;;5014626;28;20219;-77
2022/10/19 12:51:18;;;;;;;5.72;1.33;;;20.90;83.80;;;;;;5011709;28;20199;-77
2022/10/19 12:53:48;;;;;;;3.25;1.70;;;21.80;81.40;;;;;;5016339;28;20191;-77
2022/10/19 12:56:23;;;;;;;5.88;2.20;;;21.50;81.60;;;;;;5014560;28;20206;-77
2022/10/19 12:58:55;;;;;;;2.92;1.65;;;20.40;81.00;;;;;;5033364;28;20215;-77
2022/10/19 13:01:26;;;;;;;3.55;1.77;;;20.00;84.60;;;;;;5001929;28;20210;-77
2022/10/19 13:04:08;;;;;;;4.03;2.05;;;21.40;81.50;;;;;;5017385;28;20198;-77
2022/10/19 13:06:41;;;;;;;3.22;1.80;;;20.10;85.80;;;;;;5028438;28;20206;-78
2022/10/19 13:09:21;;;;;;;3.78;2.17;;;20.20;85.80;;;;;;5029767;28;20727;-78
2022/10/19 13:12:25;;;;;;;5.90;1.65;;;20.70;83.20;;;;;;5036947;28;20187;-76
2022/10/19 13:14:55;;;;;;;6.30;2.10;;;22.20;81.90;;;;;;5020874;28;20202;-77
2022/10/19 13:17:42;;;;;;;4.65;1.80;;;21.80;79.70;;;;;;5012701;28;20199;-78
2022/10/19 13:20:43;;;;;;;4.85;1.63;;;21.50;77.40;;;;;;5004451;28;20191;-77
2022/10/19 13:23:38;;;;;;;2.50;1.27;;;21.70;79.40;;;;;;5003963;28;20205;-77
2022/10/19 13:26:32;;;;;;;4.95;1.70;;;22.70;75.40;;;;;;5017064;28;20225;-79